createdAt,value
2023-01-11T00:00:46.291Z,4.20
2023-01-11T00:03:17.846Z,3.43
2023-01-11T00:05:48.439Z,4.27
2023-01-11T00:08:19.329Z,4.40
2023-01-11T00:10:49.985Z,5.13
2023-01-11T00:13:21.019Z,4.67
2023-01-11T00:15:51.801Z,4.63
2023-01-11T00:18:22.385Z,4.97
2023-01-11T00:20:53.083Z,4.20
2023-01-11T00:23:23.627Z,4.20
2023-01-11T00:25:55.186Z,4.00
2023-01-11T00:28:25.760Z,4.47
2023-01-11T00:30:56.330Z,4.90
2023-01-11T00:33:27.092Z,4.53
2023-01-11T00:35:57.833Z,4.50
2023-01-11T00:38:46.220Z,4.40
2023-01-11T00:41:40.495Z,5.20
2023-01-11T00:44:31.399Z,4.50
2023-01-11T00:47:19.443Z,4.73
2023-01-11T00:50:09.371Z,4.73
2023-01-11T00:52:40.027Z,4.00
2023-01-11T00:55:12.015Z,3.90
2023-01-11T00:57:42.551Z,4.40
2023-01-11T01:00:15.423Z,4.30
2023-01-11T01:02:46.366Z,4.77
2023-01-11T01:05:18.017Z,3.73
2023-01-11T01:07:49.605Z,3.77
2023-01-11T01:10:20.941Z,4.07
2023-01-11T01:13:09.096Z,4.10
2023-01-11T01:15:39.742Z,2.93
2023-01-11T01:18:10.378Z,3.87
2023-01-11T01:20:41.310Z,4.03
2023-01-11T01:23:11.910Z,3.70
2023-01-11T01:25:42.500Z,3.73
2023-01-11T01:28:13.046Z,4.47
2023-01-11T01:30:43.683Z,5.17
2023-01-11T01:33:14.227Z,5.13
2023-01-11T01:35:44.818Z,4.30
2023-01-11T01:38:15.482Z,4.40
2023-01-11T01:40:47.542Z,4.33
2023-01-11T01:43:19.343Z,4.40
2023-01-11T01:45:52.424Z,3.33
2023-01-11T01:48:25.559Z,3.33
2023-01-11T01:50:59.942Z,3.27
2023-01-11T01:53:35.508Z,3.63
2023-01-11T01:56:09.770Z,3.12
2023-01-11T01:58:43.324Z,2.90
2023-01-11T02:01:33.042Z,2.50
2023-01-11T02:04:06.680Z,2.83
2023-01-11T02:06:37.935Z,5.08
2023-01-11T02:09:11.550Z,4.17
2023-01-11T02:11:45.240Z,2.63
2023-01-11T02:14:18.965Z,3.70
2023-01-11T02:16:49.592Z,2.87
2023-01-11T02:19:26.739Z,2.53
2023-01-11T02:22:07.773Z,2.50
2023-01-11T02:24:48.790Z,2.92
2023-01-11T02:27:32.376Z,2.60
2023-01-11T02:30:13.665Z,2.53
2023-01-11T02:32:49.162Z,2.90
2023-01-11T02:35:23.697Z,3.53
2023-01-11T02:37:57.944Z,3.60
2023-01-11T02:40:31.525Z,3.47
2023-01-11T02:43:23.199Z,3.07
2023-01-11T02:45:57.945Z,2.47
2023-01-11T02:48:49.692Z,2.80
2023-01-11T02:51:23.629Z,3.13
2023-01-11T02:53:56.842Z,2.77
2023-01-11T02:56:28.923Z,2.40
2023-01-11T02:59:01.526Z,3.20
2023-01-11T03:01:32.140Z,2.97
2023-01-11T03:04:02.717Z,3.07
2023-01-11T03:06:36.225Z,2.60
2023-01-11T03:09:21.289Z,2.33
2023-01-11T03:12:17.131Z,3.00
2023-01-11T03:14:53.972Z,3.03
2023-01-11T03:17:32.393Z,2.80
2023-01-11T03:20:07.719Z,2.13
2023-01-11T03:22:42.146Z,2.13
2023-01-11T03:25:16.668Z,2.60
2023-01-11T03:27:50.919Z,2.77
2023-01-11T03:30:25.637Z,2.77
2023-01-11T03:32:59.218Z,2.70
2023-01-11T03:35:32.900Z,3.17
2023-01-11T03:38:06.653Z,3.57
2023-01-11T03:40:39.950Z,3.10
2023-01-11T03:43:13.782Z,2.87
2023-01-11T03:45:49.834Z,2.73
2023-01-11T03:48:23.515Z,2.40
2023-01-11T03:50:57.006Z,2.23
2023-01-11T03:53:30.232Z,2.87
2023-01-11T03:56:02.796Z,2.77
2023-01-11T03:58:33.385Z,2.90
2023-01-11T04:01:05.092Z,2.63
2023-01-11T04:03:35.828Z,2.60
2023-01-11T04:06:07.335Z,2.30
2023-01-11T04:08:37.876Z,2.43
2023-01-11T04:11:08.748Z,2.10
2023-01-11T04:13:39.395Z,2.40
2023-01-11T04:16:10.469Z,2.50
2023-01-11T04:18:41.348Z,2.10
2023-01-11T04:21:11.868Z,2.30
2023-01-11T04:23:42.418Z,1.83
2023-01-11T04:26:13.153Z,2.60
2023-01-11T04:28:43.688Z,2.40
2023-01-11T04:31:14.503Z,2.37
2023-01-11T04:33:45.105Z,2.30
2023-01-11T04:36:15.838Z,2.00
2023-01-11T04:38:46.547Z,2.20
2023-01-11T04:41:34.827Z,2.20
2023-01-11T04:44:05.624Z,2.00
2023-01-11T04:46:36.460Z,2.43
2023-01-11T04:49:07.066Z,2.40
2023-01-11T04:51:37.789Z,2.30
2023-01-11T04:54:09.523Z,2.50
2023-01-11T04:56:40.077Z,2.20
2023-01-11T04:59:10.764Z,2.57
2023-01-11T05:01:41.384Z,2.27
2023-01-11T05:04:13.499Z,2.13
2023-01-11T05:06:44.456Z,2.17
2023-01-11T05:09:17.284Z,2.77
2023-01-11T05:11:48.382Z,2.55
2023-01-11T05:14:19.926Z,2.30
2023-01-11T05:16:50.560Z,2.23
2023-01-11T05:19:21.230Z,2.70
2023-01-11T05:21:51.980Z,2.67
2023-01-11T05:24:22.833Z,2.07
2023-01-11T05:26:53.553Z,2.47
2023-01-11T05:29:24.239Z,2.40
2023-01-11T05:31:55.069Z,2.20
2023-01-11T05:34:25.726Z,2.60
2023-01-11T05:36:56.799Z,2.60
2023-01-11T05:39:27.891Z,2.40
2023-01-11T05:41:58.529Z,2.63
2023-01-11T05:44:46.701Z,2.37
2023-01-11T05:47:17.268Z,2.20
2023-01-11T05:49:47.896Z,2.17
2023-01-11T05:52:18.572Z,2.23
2023-01-11T05:54:51.592Z,2.27
2023-01-11T05:57:22.285Z,2.00
2023-01-11T05:59:53.174Z,2.23
2023-01-11T06:02:24.195Z,2.93
2023-01-11T06:07:34.403Z,3.00
2023-01-11T06:10:05.220Z,2.67
2023-01-11T06:12:36.039Z,2.70
2023-01-11T06:15:09.077Z,2.73
2023-01-11T06:17:39.715Z,2.57
2023-01-11T06:20:13.837Z,2.73
2023-01-11T06:22:44.497Z,2.20
2023-01-11T06:25:15.539Z,2.40
2023-01-11T06:27:46.147Z,2.10
2023-01-11T06:30:17.631Z,2.60
2023-01-11T06:32:48.406Z,2.50
2023-01-11T06:35:19.418Z,2.30
2023-01-11T06:37:50.316Z,2.57
2023-01-11T06:40:21.117Z,2.20
2023-01-11T06:42:51.922Z,2.40
2023-01-11T06:45:22.663Z,3.30
2023-01-11T06:47:53.349Z,2.70
2023-01-11T06:50:24.423Z,4.63
2023-01-11T06:52:59.204Z,3.70
2023-01-11T06:55:31.984Z,3.70
2023-01-11T06:58:02.591Z,3.47
2023-01-11T07:00:33.775Z,3.60
2023-01-11T07:03:06.652Z,3.13
2023-01-11T07:05:38.555Z,3.10
2023-01-11T07:08:09.560Z,4.07
2023-01-11T07:10:40.567Z,3.97
2023-01-11T07:13:12.504Z,2.87
2023-01-11T07:15:43.414Z,2.63
2023-01-11T07:18:14.521Z,2.30
2023-01-11T07:20:45.440Z,2.73
2023-01-11T07:23:16.101Z,3.20
2023-01-11T07:25:46.839Z,2.97
2023-01-11T07:28:17.536Z,3.07
2023-01-11T07:30:58.269Z,2.80
2023-01-11T07:33:21.633Z,2.63
2023-01-11T07:35:52.580Z,3.00
2023-01-11T07:38:24.038Z,3.03
2023-01-11T07:40:54.802Z,3.30
2023-01-11T07:43:25.545Z,3.17
2023-01-11T07:45:56.572Z,4.37
2023-01-11T07:48:28.083Z,3.20
2023-01-11T07:50:58.778Z,2.80
2023-01-11T07:53:29.484Z,2.97
2023-01-11T07:56:00.110Z,3.93
2023-01-11T07:58:31.524Z,3.40
2023-01-11T08:01:02.826Z,3.40
2023-01-11T08:03:33.516Z,3.77
2023-01-11T08:06:04.417Z,4.80
2023-01-11T08:08:35.198Z,9.90
2023-01-11T08:11:23.803Z,11.17
2023-01-11T08:14:12.042Z,7.97
2023-01-11T08:16:42.872Z,4.77
2023-01-11T08:19:13.438Z,6.40
2023-01-11T08:21:44.715Z,6.43
2023-01-11T08:24:15.453Z,6.23
2023-01-11T08:26:46.306Z,4.47
2023-01-11T08:29:17.222Z,3.60
2023-01-11T08:31:48.892Z,4.00
2023-01-11T08:34:19.604Z,4.30
2023-01-11T08:36:50.191Z,3.80
2023-01-11T08:39:20.876Z,4.50
2023-01-11T08:41:51.694Z,3.43
2023-01-11T08:44:33.314Z,3.10
2023-01-11T08:46:55.144Z,2.77
2023-01-11T08:49:26.023Z,2.83
2023-01-11T08:51:56.848Z,3.73
2023-01-11T08:54:28.104Z,3.77
2023-01-11T08:56:58.949Z,3.90
2023-01-11T08:59:29.771Z,3.77
2023-01-11T09:02:02.306Z,4.43
2023-01-11T09:04:34.159Z,4.70
2023-01-11T09:07:05.384Z,6.33
2023-01-11T09:09:36.412Z,4.67
2023-01-11T09:12:07.926Z,4.40
2023-01-11T09:14:39.151Z,5.17
2023-01-11T09:17:10.413Z,4.40
2023-01-11T09:19:41.209Z,4.87
2023-01-11T09:22:12.168Z,4.30
2023-01-11T09:24:43.312Z,4.93
2023-01-11T09:27:14.457Z,4.27
2023-01-11T09:29:46.929Z,4.30
2023-01-11T09:32:18.189Z,4.17
2023-01-11T09:34:49.954Z,4.10
2023-01-11T09:37:22.857Z,3.87
2023-01-11T09:39:53.766Z,4.60
2023-01-11T09:42:39.807Z,3.57
2023-01-11T09:45:17.553Z,3.77
2023-01-11T09:47:52.102Z,3.70
2023-01-11T09:50:26.581Z,4.17
2023-01-11T09:53:00.067Z,3.47
2023-01-11T09:55:36.769Z,4.30
2023-01-11T09:58:32.910Z,4.47
2023-01-11T10:01:08.959Z,4.20
2023-01-11T10:03:59.823Z,4.33
2023-01-11T10:06:34.993Z,4.93
2023-01-11T10:18:30.453Z,4.87
2023-01-11T10:18:39.289Z,4.03
2023-01-11T10:19:57.635Z,4.50
2023-01-11T10:22:32.863Z,4.80
2023-01-11T10:25:10.272Z,4.33
2023-01-11T10:27:45.604Z,5.00
2023-01-11T10:30:35.993Z,4.40
2023-01-11T10:33:16.623Z,4.43
2023-01-11T10:36:01.601Z,4.30
2023-01-11T10:38:43.716Z,4.27
2023-01-11T10:41:25.287Z,4.13
2023-01-11T10:44:05.358Z,4.97
2023-01-11T10:46:40.063Z,5.43
2023-01-11T10:49:35.940Z,5.58
2023-01-11T10:52:15.657Z,4.60
2023-01-11T10:54:50.147Z,4.50
2023-01-11T10:57:26.057Z,5.03
2023-01-11T11:00:13.744Z,5.50
2023-01-11T11:02:52.994Z,4.70
2023-01-11T11:05:31.158Z,5.30
2023-01-11T11:10:48.362Z,5.50
2023-01-11T11:13:22.663Z,4.93
2023-01-11T11:15:56.615Z,4.93
2023-01-11T11:18:27.919Z,4.50
2023-01-11T11:21:01.269Z,4.83
2023-01-11T11:23:32.738Z,4.33
2023-01-11T11:26:05.953Z,4.97
2023-01-11T11:28:36.924Z,4.90
2023-01-11T11:31:10.018Z,5.73
2023-01-11T11:33:43.917Z,6.20
2023-01-11T11:36:17.650Z,5.83
2023-01-11T11:39:05.655Z,5.50
2023-01-11T11:41:48.792Z,6.03
2023-01-11T11:44:22.814Z,4.30
2023-01-11T11:47:04.430Z,4.77
2023-01-11T11:49:36.042Z,5.27
2023-01-11T11:52:08.584Z,5.00
2023-01-11T11:54:41.922Z,5.00
2023-01-11T11:57:18.715Z,4.23
2023-01-11T11:59:51.175Z,4.73
2023-01-11T12:02:27.982Z,4.53
2023-01-11T12:05:01.198Z,4.60
2023-01-11T12:07:40.472Z,4.13
2023-01-11T12:10:11.945Z,4.70
2023-01-11T12:12:53.076Z,4.20
2023-01-11T12:15:27.471Z,4.53
2023-01-11T12:18:00.150Z,4.23
2023-01-11T12:20:37.542Z,4.40
2023-01-11T12:23:18.962Z,4.70
2023-01-11T12:26:18.699Z,4.47
2023-01-11T12:29:25.517Z,4.40
2023-01-11T12:32:16.906Z,4.27
2023-01-11T12:35:25.950Z,3.70
2023-01-11T12:38:10.644Z,4.60
2023-01-11T12:40:44.881Z,4.13
2023-01-11T12:43:39.194Z,3.57
2023-01-11T12:46:16.562Z,4.37
2023-01-11T12:51:57.942Z,4.00
2023-01-11T12:54:50.768Z,4.63
2023-01-11T12:57:28.281Z,3.87
2023-01-11T13:00:20.246Z,3.57
2023-01-11T13:05:46.524Z,3.63
2023-01-11T13:08:20.370Z,3.80
2023-01-11T13:10:57.653Z,4.70
2023-01-11T13:13:31.494Z,4.50
2023-01-11T13:16:06.146Z,5.40
2023-01-11T13:18:41.158Z,4.57
2023-01-11T13:21:20.125Z,4.83
2023-01-11T13:23:54.922Z,4.90
2023-01-11T13:26:28.300Z,4.47
2023-01-11T13:29:03.803Z,4.57
2023-01-11T13:31:37.336Z,5.40
2023-01-11T13:34:11.165Z,5.50
2023-01-11T13:36:45.837Z,5.00
2023-01-11T13:39:20.476Z,4.87
2023-01-11T13:41:54.805Z,5.53
2023-01-11T13:47:10.027Z,4.60
2023-01-11T13:49:47.023Z,5.57
2023-01-11T13:52:20.466Z,5.10
2023-01-11T13:54:59.193Z,5.67
2023-01-11T13:57:34.329Z,5.60
2023-01-11T14:00:08.897Z,5.17
2023-01-11T14:02:42.809Z,5.07
2023-01-11T14:05:18.417Z,4.30
2023-01-11T14:07:59.928Z,3.97
2023-01-11T14:10:41.677Z,3.47
2023-01-11T14:13:42.056Z,3.63
2023-01-11T14:16:22.749Z,3.43
2023-01-11T14:21:39.171Z,3.80
2023-01-11T14:24:11.968Z,4.80
2023-01-11T14:26:58.741Z,3.97
2023-01-11T14:29:58.033Z,7.50
2023-01-11T14:32:53.502Z,7.70
2023-01-11T14:36:07.275Z,8.67
2023-01-11T14:42:29.306Z,7.33
2023-01-11T14:48:11.484Z,6.80
2023-01-11T14:50:51.815Z,7.03
2023-01-11T14:53:25.641Z,6.37
2023-01-11T14:55:56.590Z,5.70
2023-01-11T14:58:31.777Z,5.40
2023-01-11T15:01:12.091Z,5.13
2023-01-11T15:03:52.867Z,5.20
2023-01-11T15:06:24.699Z,5.23
2023-01-11T15:08:57.323Z,6.00
2023-01-11T15:11:42.870Z,7.10
2023-01-11T15:14:32.842Z,7.70
2023-01-11T15:17:41.564Z,7.20
2023-01-11T15:20:15.873Z,7.33
2023-01-11T15:22:47.948Z,7.57
2023-01-11T15:25:26.552Z,8.10
2023-01-11T15:30:43.761Z,6.90
2023-01-11T15:33:47.437Z,6.40
2023-01-11T15:36:18.660Z,7.43
2023-01-11T15:38:52.866Z,6.83
2023-01-11T15:41:45.967Z,7.00
2023-01-11T15:44:29.667Z,7.83
2023-01-11T15:50:23.081Z,7.13
2023-01-11T15:53:29.797Z,7.53
2023-01-11T15:56:19.201Z,9.00
2023-01-11T15:59:21.413Z,9.67
2023-01-11T16:02:34.441Z,11.20
2023-01-11T16:05:25.241Z,10.47
2023-01-11T16:08:00.527Z,12.60
2023-01-11T16:10:49.603Z,11.30
2023-01-11T16:13:38.956Z,11.80
2023-01-11T16:16:14.569Z,9.27
2023-01-11T16:18:48.974Z,8.97
2023-01-11T16:24:01.382Z,8.80
2023-01-11T16:26:32.471Z,8.03
2023-01-11T16:29:06.697Z,8.13
2023-01-11T16:32:00.068Z,8.70
2023-01-11T16:34:33.528Z,9.73
2023-01-11T16:37:05.924Z,9.80
2023-01-11T16:39:37.054Z,9.93
2023-01-11T16:42:12.198Z,12.17
2023-01-11T16:44:46.103Z,11.87
2023-01-11T16:47:18.778Z,15.07
2023-01-11T16:49:52.531Z,15.70
2023-01-11T16:52:39.827Z,17.17
2023-01-11T16:55:30.603Z,14.50
2023-01-11T16:58:04.383Z,16.07
2023-01-11T17:00:38.722Z,15.40
2023-01-11T17:03:25.171Z,15.07
2023-01-11T17:05:58.953Z,16.30
2023-01-11T17:08:32.983Z,17.70
2023-01-11T17:11:07.361Z,19.00
2023-01-11T17:14:09.544Z,17.47
2023-01-11T17:16:43.490Z,17.93
2023-01-11T17:19:18.100Z,14.23
2023-01-11T17:21:54.784Z,18.13
2023-01-11T17:24:27.479Z,15.43
2023-01-11T17:27:02.167Z,15.93
2023-01-11T17:29:36.290Z,12.20
2023-01-11T17:32:09.085Z,13.53
2023-01-11T17:34:41.333Z,13.90
2023-01-11T17:37:15.695Z,14.93
2023-01-11T17:39:49.789Z,13.30
2023-01-11T17:42:39.418Z,13.57
2023-01-11T17:45:28.845Z,13.50
2023-01-11T17:48:00.985Z,12.50
2023-01-11T17:50:34.662Z,12.80
2023-01-11T17:53:08.229Z,14.83
2023-01-11T17:55:40.383Z,16.13
2023-01-11T17:58:23.161Z,16.10
2023-01-11T18:04:01.712Z,14.33
2023-01-11T18:06:36.822Z,12.63
2023-01-11T18:09:11.160Z,13.13
2023-01-11T18:11:43.493Z,13.03
2023-01-11T18:14:21.866Z,14.83
2023-01-11T18:17:01.575Z,13.27
2023-01-11T18:19:39.028Z,16.27
2023-01-11T18:22:28.956Z,15.13
2023-01-11T18:25:00.842Z,15.73
2023-01-11T18:27:33.762Z,12.70
2023-01-11T18:30:06.631Z,13.77
2023-01-11T18:32:44.531Z,14.60
2023-01-11T18:35:20.223Z,18.37
2023-01-11T18:37:51.243Z,14.67
2023-01-11T18:40:23.120Z,14.43
2023-01-11T18:42:55.468Z,12.47
2023-01-11T18:45:26.144Z,12.77
2023-01-11T18:47:56.724Z,12.73
2023-01-11T18:53:11.740Z,14.70
2023-01-11T18:55:43.467Z,17.17
2023-01-11T18:58:14.218Z,12.43
2023-01-11T19:00:45.074Z,11.90
2023-01-11T19:05:46.845Z,11.03
2023-01-11T19:08:18.526Z,10.73
2023-01-11T19:10:50.769Z,12.00
2023-01-11T19:13:21.451Z,12.97
2023-01-11T19:15:52.542Z,14.37
2023-01-11T19:18:23.428Z,16.43
2023-01-11T19:20:54.259Z,13.97
2023-01-11T19:23:25.088Z,12.10
2023-01-11T19:25:59.912Z,14.10
2023-01-11T19:28:30.719Z,13.50
2023-01-11T19:31:01.523Z,14.13
2023-01-11T19:33:32.249Z,14.57
2023-01-11T19:36:07.111Z,13.93
2023-01-11T19:38:39.402Z,16.20
2023-01-11T19:41:12.319Z,14.73
2023-01-11T19:43:44.688Z,13.10
2023-01-11T19:48:54.546Z,12.87
2023-01-11T19:51:26.295Z,13.17
2023-01-11T19:53:57.574Z,13.43
2023-01-11T19:56:28.296Z,13.03
2023-01-11T19:58:59.102Z,13.50
2023-01-11T20:01:30.119Z,12.87
2023-01-11T20:04:01.302Z,13.07
2023-01-11T20:06:32.497Z,13.13
2023-01-11T20:09:04.559Z,14.90
2023-01-11T20:11:35.536Z,25.47
2023-01-11T20:14:07.683Z,14.43
2023-01-11T20:16:38.435Z,13.73
2023-01-11T20:19:09.479Z,12.57
2023-01-11T20:21:40.865Z,13.47
2023-01-11T20:24:14.482Z,13.27
2023-01-11T20:26:46.742Z,16.07
2023-01-11T20:29:17.701Z,14.83
2023-01-11T20:31:49.497Z,15.83
2023-01-11T20:34:20.955Z,15.57
2023-01-11T20:36:51.772Z,12.17
2023-01-11T20:39:22.670Z,15.00
2023-01-11T20:41:54.078Z,14.93
2023-01-11T20:44:28.145Z,12.07
2023-01-11T20:47:00.543Z,12.20
2023-01-11T20:49:31.696Z,14.03
2023-01-11T20:52:02.492Z,13.33
2023-01-11T20:54:33.302Z,11.90
2023-01-11T20:57:05.834Z,10.47
2023-01-11T20:59:37.437Z,11.33
2023-01-11T21:02:08.260Z,10.40
2023-01-11T21:04:39.122Z,11.53
2023-01-11T21:07:09.916Z,11.30
2023-01-11T21:09:40.656Z,10.33
2023-01-11T21:12:11.420Z,10.90
2023-01-11T21:14:42.225Z,12.03
2023-01-11T21:17:12.835Z,11.60
2023-01-11T21:19:43.863Z,10.30
2023-01-11T21:22:14.501Z,7.00
2023-01-11T21:24:45.240Z,14.13
2023-01-11T21:27:16.080Z,10.30
2023-01-11T21:29:46.741Z,8.47
2023-01-11T21:32:17.361Z,8.07
2023-01-11T21:34:47.976Z,8.87
2023-01-11T21:37:20.246Z,4.37
2023-01-11T21:39:51.549Z,8.57
2023-01-11T21:42:22.367Z,6.43
2023-01-11T21:44:53.122Z,5.90
2023-01-11T21:47:23.695Z,9.03
2023-01-11T21:49:54.516Z,6.20
2023-01-11T21:52:25.181Z,5.10
2023-01-11T21:54:55.918Z,15.17
2023-01-11T21:57:26.508Z,9.57
2023-01-11T21:59:57.149Z,5.63
2023-01-11T22:02:27.769Z,5.23
2023-01-11T22:04:59.593Z,12.03
2023-01-11T22:07:31.039Z,9.70
2023-01-11T22:10:05.551Z,9.00
2023-01-11T22:12:35.670Z,4.97
2023-01-11T22:15:07.466Z,6.20
2023-01-11T22:17:38.273Z,4.70
2023-01-11T22:20:12.219Z,4.13
2023-01-11T22:22:43.089Z,4.17
2023-01-11T22:25:13.828Z,10.03
2023-01-11T22:27:44.542Z,5.17
2023-01-11T22:30:17.116Z,6.93
2023-01-11T22:32:48.020Z,7.97
2023-01-11T22:35:18.821Z,5.00
2023-01-11T22:37:51.259Z,5.03
2023-01-11T22:40:22.049Z,10.17
2023-01-11T22:42:52.624Z,8.70
2023-01-11T22:45:23.289Z,8.50
2023-01-11T22:47:53.882Z,6.57
2023-01-11T22:50:24.517Z,9.77
2023-01-11T22:52:55.123Z,7.53
2023-01-11T22:55:25.843Z,7.43
2023-01-11T22:57:57.710Z,7.80
2023-01-11T23:00:28.391Z,4.43
2023-01-11T23:02:59.748Z,4.43
2023-01-11T23:05:30.760Z,6.10
2023-01-11T23:08:01.397Z,9.80
2023-01-11T23:10:31.962Z,6.50
2023-01-11T23:13:20.330Z,4.83
2023-01-11T23:15:54.942Z,6.30
2023-01-11T23:18:25.561Z,6.23
2023-01-11T23:20:56.141Z,7.20
2023-01-11T23:26:08.266Z,6.00
2023-01-11T23:28:38.976Z,6.20
2023-01-11T23:31:18.462Z,5.40
2023-01-11T23:33:51.146Z,4.10
2023-01-11T23:36:23.920Z,3.83
2023-01-11T23:38:54.631Z,3.27
2023-01-11T23:42:00.057Z,3.33
2023-01-11T23:47:24.328Z,4.37
2023-01-11T23:49:56.637Z,4.13
2023-01-11T23:52:30.531Z,2.93
2023-01-11T23:55:01.224Z,6.20
2023-01-11T23:57:31.880Z,6.83
